Time;durP1;ratioP1;P1;durP2;ratioP2;P2;SDS_P1;SDS_P2;PMS_P1;PMS_P2;Temp;Humidity;BMP_temperature;BMP_pressure;BME280_temperature;BME280_humidity;BME280_pressure;Samples;Min_cycle;Max_cycle;Signal;HPM_P1;HPM_P2
2022/09/09 00:02:04;;;;;;;4.18;2.58;;;;;;;19.92;100.00;96100.81;5135332;27;20090;-46
2022/09/09 00:04:35;;;;;;;4.10;2.53;;;;;;;19.87;100.00;96100.63;5140937;27;20079;-51
2022/09/09 00:07:07;;;;;;;3.90;2.47;;;;;;;20.19;100.00;96095.34;5138815;27;20082;-48
2022/09/09 00:09:41;;;;;;;5.90;2.80;;;;;;;20.44;100.00;96098.06;5142781;27;20078;-53
2022/09/09 00:12:12;;;;;;;5.30;2.53;;;;;;;20.58;100.00;96102.38;5134896;27;21013;-49
2022/09/09 00:14:48;;;;;;;5.15;2.40;;;;;;;20.28;100.00;96099.41;5139153;27;20097;-50
2022/09/09 00:17:34;;;;;;;5.70;2.58;;;;;;;20.08;100.00;96105.69;5142137;27;20085;-54
2022/09/09 00:20:10;;;;;;;9.00;2.85;;;;;;;19.89;100.00;96101.25;5139792;27;20653;-55
2022/09/09 00:22:42;;;;;;;5.75;2.58;;;;;;;19.79;100.00;96101.69;5142851;27;20058;-52
2022/09/09 00:25:13;;;;;;;4.70;2.40;;;;;;;19.98;100.00;96099.16;5142926;27;20047;-46
2022/09/09 00:27:45;;;;;;;3.83;2.65;;;;;;;20.00;100.00;96097.09;5137862;27;20090;-50
2022/09/09 00:30:19;;;;;;;9.32;2.88;;;;;;;20.26;100.00;96094.25;5141087;27;20082;-45
2022/09/09 00:32:50;;;;;;;3.60;2.50;;;;;;;19.82;100.00;96100.44;5141001;27;20117;-51
2022/09/09 00:35:23;;;;;;;4.13;2.50;;;;;;;20.08;100.00;96097.66;5144373;27;20063;-48
2022/09/09 00:37:54;;;;;;;5.60;2.70;;;;;;;20.20;100.00;96091.63;5142800;27;20066;-46
2022/09/09 00:40:29;;;;;;;5.20;2.30;;;;;;;19.51;100.00;96096.59;5139912;27;20497;-46
2022/09/09 00:43:16;;;;;;;4.45;2.53;;;;;;;20.15;100.00;96095.75;5143079;27;20090;-47
2022/09/09 00:46:14;;;;;;;3.88;2.70;;;;;;;20.17;100.00;96094.75;5143255;27;20097;-49
2022/09/09 00:48:50;;;;;;;4.25;2.70;;;;;;;20.32;100.00;96096.09;5146313;27;20082;-52
2022/09/09 00:51:27;;;;;;;8.88;2.45;;;;;;;19.62;100.00;96095.94;5138666;27;20539;-52
2022/09/09 00:54:10;;;;;;;4.00;2.72;;;;;;;20.31;100.00;96091.78;5139759;27;20071;-52
2022/09/09 00:56:42;;;;;;;8.40;2.65;;;;;;;20.07;100.00;96096.03;5146136;27;20655;-52
2022/09/09 00:59:22;;;;;;;3.63;2.33;;;;;;;19.85;100.00;96092.78;5144133;27;20766;-52
2022/09/09 01:01:55;;;;;;;4.50;2.67;;;;;;;20.11;100.00;96081.16;5141556;27;20066;-49
2022/09/09 01:04:31;;;;;;;5.28;2.53;;;;;;;19.75;100.00;96092.44;5141024;27;20085;-52
2022/09/09 01:07:05;;;;;;;5.57;3.00;;;;;;;19.98;100.00;96099.16;5140891;27;20472;-49
2022/09/09 01:09:39;;;;;;;6.53;2.83;;;;;;;19.17;100.00;96101.19;5139938;27;20123;-51
2022/09/09 01:12:13;;;;;;;10.65;3.10;;;;;;;19.29;100.00;96096.00;5140444;27;20071;-52
2022/09/09 01:14:44;;;;;;;5.10;2.90;;;;;;;19.54;100.00;96098.84;5134574;27;20074;-48
2022/09/09 01:17:17;;;;;;;5.97;3.05;;;;;;;19.78;100.00;96094.69;5140951;27;20078;-47
2022/09/09 01:20:04;;;;;;;8.15;3.50;;;;;;;19.80;100.00;96089.13;5145668;27;20057;-49
2022/09/09 01:22:36;;;;;;;9.52;3.92;;;;;;;19.47;100.00;96090.00;5142431;27;20081;-56
2022/09/09 01:25:22;;;;;;;7.43;3.15;;;;;;;19.77;100.00;96101.06;5144702;27;20516;-49
2022/09/09 01:27:53;;;;;;;4.35;3.10;;;;;;;19.75;100.00;96094.28;5140329;27;20074;-52
2022/09/09 01:30:22;;;;;;;5.90;3.28;;;;;;;19.79;100.00;96095.53;5139032;27;20085;-47
2022/09/09 01:32:53;;;;;;;6.45;3.15;;;;;;;19.25;100.00;96097.47;5140392;27;20082;-49
2022/09/09 01:35:31;;;;;;;3.88;2.90;;;;;;;19.88;100.00;96100.41;5144734;27;20587;-51
2022/09/09 01:37:59;;;;;;;5.22;3.22;;;;;;;19.55;100.00;96103.16;5141212;27;20116;-51
2022/09/09 01:40:27;;;;;;;5.22;2.95;;;;;;;19.86;100.00;96093.66;5142345;27;20070;-50
2022/09/09 01:42:57;;;;;;;5.60;2.80;;;;;;;19.50;100.00;96099.47;5136847;27;20077;-47
2022/09/09 01:45:25;;;;;;;3.22;2.88;;;;;;;19.86;100.00;96099.81;5137187;27;20081;-49
2022/09/09 01:47:54;;;;;;;6.15;3.15;;;;;;;19.50;100.00;96110.16;5140178;27;20460;-48
2022/09/09 01:50:22;;;;;;;4.53;3.05;;;;;;;19.71;100.00;96104.59;5142215;27;20086;-48
2022/09/09 01:52:53;;;;;;;4.95;3.08;;;;;;;19.47;100.00;96097.22;5141153;27;20077;-47
2022/09/09 01:55:29;;;;;;;3.42;2.80;;;;;;;19.93;100.00;96102.47;5142679;27;20070;-52
2022/09/09 01:58:10;;;;;;;4.55;2.90;;;;;;;19.75;100.00;96100.47;5137365;27;20078;-49
2022/09/09 02:00:44;;;;;;;5.75;2.88;;;;;;;19.99;100.00;96095.41;5137711;27;20105;-51
2022/09/09 02:03:20;;;;;;;5.22;2.70;;;;;;;19.80;100.00;96095.31;5144702;27;20077;-48
2022/09/09 02:05:55;;;;;;;7.28;2.70;;;;;;;19.78;100.00;96096.53;5137159;27;20089;-47
2022/09/09 02:08:27;;;;;;;5.30;2.88;;;;;;;19.82;100.00;96103.94;5131626;27;20054;-50
2022/09/09 02:10:57;;;;;;;5.97;2.70;;;;;;;20.07;100.00;96098.69;5134502;27;20074;-49
2022/09/09 02:13:27;;;;;;;9.05;2.70;;;;;;;20.18;100.00;96102.56;5131803;27;20063;-47
2022/09/09 02:16:00;;;;;;;3.38;2.70;;;;;;;20.53;100.00;96105.66;5128697;27;20036;-54
2022/09/09 02:18:31;;;;;;;3.85;2.58;;;;;;;20.50;100.00;96102.56;5133527;27;20078;-45
2022/09/09 02:21:00;;;;;;;4.20;2.92;;;;;;;19.87;100.00;96095.28;5134647;27;20066;-48
2022/09/09 02:23:29;;;;;;;5.80;2.80;;;;;;;20.37;100.00;96090.06;5131365;27;20054;-49
2022/09/09 02:25:59;;;;;;;6.68;2.78;;;;;;;19.90;100.00;96090.31;5134473;27;20079;-51
2022/09/09 02:28:31;;;;;;;3.08;2.75;;;;;;;20.17;100.00;96082.19;5133116;27;20120;-50
2022/09/09 02:31:00;;;;;;;5.00;2.78;;;;;;;20.45;100.00;96087.16;5132217;27;20086;-48
2022/09/09 02:33:31;;;;;;;5.65;2.80;;;;;;;20.47;100.00;96077.03;5136648;27;20079;-46
2022/09/09 02:36:03;;;;;;;5.18;2.72;;;;;;;20.26;100.00;96085.41;5129429;27;20078;-46
2022/09/09 02:38:35;;;;;;;4.65;2.63;;;;;;;20.35;100.00;96087.63;5130691;27;20446;-45
2022/09/09 02:41:04;;;;;;;3.75;2.80;;;;;;;20.56;100.00;96083.81;5133201;27;20082;-51
2022/09/09 02:43:34;;;;;;;2.80;2.38;;;;;;;20.62;100.00;96082.97;5133935;27;20073;-52
2022/09/09 02:46:09;;;;;;;4.28;2.72;;;;;;;20.68;100.00;96083.09;5133506;27;20647;-46
2022/09/09 02:48:43;;;;;;;3.03;2.60;;;;;;;20.66;100.00;96077.16;5134727;27;20100;-48
2022/09/09 02:51:17;;;;;;;6.30;2.50;;;;;;;19.83;100.00;96080.69;5132859;27;20082;-46
2022/09/09 02:53:50;;;;;;;3.97;2.63;;;;;;;20.06;100.00;96078.31;5138593;27;20074;-47
2022/09/09 02:56:21;;;;;;;4.15;2.60;;;;;;;20.21;100.00;96079.88;5145243;27;20074;-52
2022/09/09 02:58:51;;;;;;;6.32;2.63;;;;;;;20.55;100.00;96078.69;5134396;27;20509;-49
2022/09/09 03:01:20;;;;;;;10.73;2.90;;;;;;;20.56;100.00;96075.78;5137771;27;20093;-47
2022/09/09 03:03:48;;;;;;;4.68;2.78;;;;;;;20.47;100.00;96074.34;5143626;27;20460;-48
2022/09/09 03:06:16;;;;;;;4.03;2.38;;;;;;;20.53;100.00;96076.22;5133851;27;20440;-45
2022/09/09 03:08:44;;;;;;;4.63;2.63;;;;;;;20.24;100.00;96074.09;5139280;27;20085;-54
2022/09/09 03:11:16;;;;;;;3.92;2.50;;;;;;;20.32;100.00;96069.31;5140793;27;20066;-47
2022/09/09 03:13:45;;;;;;;3.63;2.53;;;;;;;20.38;100.00;96065.78;5138805;27;20086;-46
2022/09/09 03:16:14;;;;;;;5.93;2.53;;;;;;;20.34;100.00;96066.44;5140522;27;20547;-45
2022/09/09 03:18:45;;;;;;;6.10;2.58;;;;;;;20.31;100.00;96073.03;5141020;27;20087;-48
2022/09/09 03:21:14;;;;;;;8.20;2.40;;;;;;;20.39;100.00;96069.28;5137683;27;20039;-49
2022/09/09 03:23:42;;;;;;;6.93;2.95;;;;;;;20.31;100.00;96065.00;5136252;27;20071;-48
2022/09/09 03:26:10;;;;;;;5.45;2.50;;;;;;;20.15;100.00;96068.16;5141875;27;20078;-52
2022/09/09 03:28:39;;;;;;;3.78;2.47;;;;;;;20.10;100.00;96071.50;5139591;27;20079;-49
2022/09/09 03:31:10;;;;;;;5.05;2.30;;;;;;;20.42;100.00;96068.84;5139235;27;20075;-50
2022/09/09 03:33:40;;;;;;;6.18;2.47;;;;;;;20.61;100.00;96064.41;5136796;27;20069;-46
2022/09/09 03:36:09;;;;;;;;;;;;;;;20.73;100.00;96053.81;5136352;27;20142;-51
2022/09/09 03:38:37;;;;;;;2.90;2.28;;;;;;;20.63;100.00;96068.50;5139788;27;19954;-51
2022/09/09 03:41:07;;;;;;;3.53;2.33;;;;;;;20.27;100.00;96061.13;5130555;27;20078;-54
2022/09/09 03:43:37;;;;;;;2.95;2.40;;;;;;;20.10;100.00;96065.31;5140939;27;20078;-49
2022/09/09 03:46:05;;;;;;;5.75;2.50;;;;;;;20.43;100.00;96056.25;5134659;27;20097;-51
2022/09/09 03:48:34;;;;;;;2.75;2.10;;;;;;;20.76;100.00;96051.53;5136963;27;20074;-48
2022/09/09 03:51:04;;;;;;;3.40;2.25;;;;;;;20.85;100.00;96049.38;5135041;27;20085;-50
2022/09/09 03:53:34;;;;;;;7.57;2.40;;;;;;;20.91;100.00;96045.00;5141485;27;20082;-49
2022/09/09 03:56:03;;;;;;;6.55;2.40;;;;;;;20.61;100.00;96051.84;5138175;27;20499;-49
2022/09/09 03:58:31;;;;;;;2.42;2.15;;;;;;;20.38;100.00;96056.91;5135362;27;20085;-46
2022/09/09 04:01:01;;;;;;;3.83;2.00;;;;;;;20.68;100.00;96048.28;5133639;27;20093;-49
2022/09/09 04:03:30;;;;;;;3.33;2.25;;;;;;;20.38;100.00;96052.38;5148122;27;20077;-51
2022/09/09 04:06:01;;;;;;;4.15;2.42;;;;;;;20.55;100.00;96050.03;5148113;27;20078;-51
2022/09/09 04:08:32;;;;;;;4.15;2.30;;;;;;;20.65;100.00;96052.22;5136978;27;20075;-52
2022/09/09 04:11:05;;;;;;;8.15;2.72;;;;;;;20.85;100.00;96047.53;5138337;27;20077;-48
2022/09/09 04:13:34;;;;;;;5.40;2.10;;;;;;;20.70;100.00;96054.25;5138615;27;20078;-52
2022/09/09 04:16:04;;;;;;;4.13;2.20;;;;;;;20.60;100.00;96052.06;5147956;27;20072;-47
2022/09/09 04:18:34;;;;;;;4.07;2.08;;;;;;;20.85;100.00;96047.53;5137063;27;20074;-49
2022/09/09 04:21:04;;;;;;;3.33;2.05;;;;;;;20.83;100.00;96051.47;5151399;27;20086;-52
2022/09/09 04:23:34;;;;;;;2.92;2.00;;;;;;;20.43;100.00;96056.25;5144516;27;20077;-49
2022/09/09 04:26:04;;;;;;;4.75;2.33;;;;;;;20.93;100.00;96056.34;5141853;27;20075;-48
2022/09/09 04:28:33;;;;;;;2.80;2.15;;;;;;;20.92;100.00;96055.53;5142790;27;20090;-52
2022/09/09 04:31:05;;;;;;;5.68;2.10;;;;;;;20.71;100.00;96051.34;5145032;27;20085;-54
2022/09/09 04:33:34;;;;;;;4.80;2.10;;;;;;;21.03;100.00;96049.44;5146956;27;20082;-48
2022/09/09 04:36:08;;;;;;;2.50;2.30;;;;;;;21.15;100.00;96052.19;5147369;27;20066;-51
2022/09/09 04:38:37;;;;;;;4.75;2.20;;;;;;;20.81;100.00;96056.22;5151764;27;20078;-48
2022/09/09 04:41:06;;;;;;;5.30;2.33;;;;;;;21.03;100.00;96045.94;5144377;27;20086;-48
2022/09/09 04:43:34;;;;;;;4.65;2.40;;;;;;;21.15;100.00;96032.63;5137389;27;20494;-48
2022/09/09 04:46:02;;;;;;;5.60;2.65;;;;;;;20.93;100.00;96029.53;5137663;27;20078;-54
2022/09/09 04:48:31;;;;;;;3.05;2.05;;;;;;;20.98;100.00;96035.84;5138302;27;20071;-50
2022/09/09 04:51:02;;;;;;;4.88;2.35;;;;;;;21.07;100.00;96029.19;5146258;27;20113;-48
2022/09/09 04:53:30;;;;;;;3.10;1.95;;;;;;;20.96;100.00;96040.63;5141854;27;20536;-49
2022/09/09 04:56:09;;;;;;;4.20;2.20;;;;;;;21.05;100.00;96041.97;5142517;27;20078;-50
2022/09/09 04:58:39;;;;;;;5.85;2.40;;;;;;;20.95;100.00;96046.19;5141239;27;20069;-49
2022/09/09 05:01:08;;;;;;;6.85;2.20;;;;;;;20.81;100.00;96053.53;5145207;27;20532;-49
2022/09/09 05:03:37;;;;;;;3.42;2.30;;;;;;;20.79;100.00;96050.28;5148515;27;20505;-49
2022/09/09 05:06:08;;;;;;;5.57;2.45;;;;;;;20.65;100.00;96046.88;5145946;27;20136;-47
2022/09/09 05:08:37;;;;;;;3.92;2.20;;;;;;;20.75;100.00;96041.84;5142852;27;20078;-51
2022/09/09 05:11:16;;;;;;;3.42;2.20;;;;;;;20.91;100.00;96042.31;5148284;27;20085;-46
2022/09/09 05:13:45;;;;;;;3.33;2.10;;;;;;;21.11;100.00;96034.91;5142591;27;20062;-48
2022/09/09 05:16:15;;;;;;;6.68;2.10;;;;;;;21.02;100.00;96047.78;5151304;27;20047;-50
2022/09/09 05:18:45;;;;;;;6.10;2.38;;;;;;;21.01;100.00;96037.28;5146033;27;20090;-49
2022/09/09 05:21:15;;;;;;;2.50;1.92;;;;;;;20.99;100.00;96042.03;5143745;27;20096;-46
2022/09/09 05:23:43;;;;;;;5.30;1.92;;;;;;;20.98;100.00;96043.91;5141807;27;20074;-46
2022/09/09 05:26:15;;;;;;;3.22;1.92;;;;;;;21.03;100.00;96051.31;5145265;27;20192;-52
2022/09/09 05:28:45;;;;;;;4.93;2.20;;;;;;;21.07;100.00;96057.84;5147759;27;20625;-48
2022/09/09 05:31:14;;;;;;;5.03;2.10;;;;;;;21.08;100.00;96056.81;5137166;27;20113;-48
2022/09/09 05:33:45;;;;;;;3.22;2.40;;;;;;;21.01;100.00;96059.53;5141346;27;20087;-46
2022/09/09 05:36:16;;;;;;;2.90;2.00;;;;;;;21.09;100.00;96061.97;5138439;27;20073;-55
2022/09/09 05:38:45;;;;;;;2.70;2.00;;;;;;;20.49;100.00;96069.63;5137463;27;20078;-48
2022/09/09 05:41:15;;;;;;;3.60;2.17;;;;;;;20.36;100.00;96067.84;5146155;27;20703;-51
2022/09/09 05:43:45;;;;;;;4.38;2.08;;;;;;;20.76;100.00;96059.56;5148208;27;20567;-47
2022/09/09 05:46:15;;;;;;;3.03;2.28;;;;;;;21.06;100.00;96061.59;5138709;27;20074;-52
2022/09/09 05:48:46;;;;;;;7.60;2.22;;;;;;;21.32;100.00;96064.00;5142216;27;20440;-48
2022/09/09 05:51:17;;;;;;;4.45;2.10;;;;;;;21.51;100.00;96061.38;5138566;27;20075;-50
2022/09/09 05:53:46;;;;;;;3.88;2.08;;;;;;;21.56;100.00;96059.66;5135341;27;20078;-47
2022/09/09 05:56:17;;;;;;;2.72;1.98;;;;;;;21.67;100.00;96062.63;5140641;27;20082;-56
2022/09/09 05:58:47;;;;;;;3.20;2.20;;;;;;;21.76;100.00;96070.16;5146478;27;20070;-46
2022/09/09 06:01:16;;;;;;;4.40;2.20;;;;;;;21.84;100.00;96060.97;5140622;27;20075;-53
2022/09/09 06:03:46;;;;;;;2.00;1.80;;;;;;;21.84;100.00;96069.03;5144010;27;20186;-49
2022/09/09 06:06:17;;;;;;;3.08;1.90;;;;;;;21.44;100.00;96066.81;5146057;27;20521;-47
2022/09/09 06:08:46;;;;;;;4.57;2.00;;;;;;;21.44;100.00;96068.66;5140989;27;20082;-49
2022/09/09 06:11:17;;;;;;;4.60;2.10;;;;;;;21.73;100.00;96069.78;5140980;27;20080;-49
2022/09/09 06:13:45;;;;;;;3.05;2.00;;;;;;;21.83;100.00;96074.63;5144360;27;20078;-50
2022/09/09 06:16:16;;;;;;;4.03;2.00;;;;;;;21.53;100.00;96065.44;5149095;27;20074;-50
2022/09/09 06:18:45;;;;;;;2.33;1.80;;;;;;;21.63;100.00;96064.13;5143186;27;20074;-48
2022/09/09 06:21:17;;;;;;;2.55;1.90;;;;;;;22.25;100.00;96071.00;5149904;27;20520;-45
2022/09/09 06:23:45;;;;;;;2.15;1.88;;;;;;;22.25;100.00;96068.31;5139091;27;20521;-46
2022/09/09 06:26:17;;;;;;;2.63;2.00;;;;;;;22.16;100.00;96066.16;5138622;27;20082;-49
2022/09/09 06:28:47;;;;;;;1.98;1.70;;;;;;;21.93;100.00;96074.94;5149908;27;20543;-50
2022/09/09 06:31:21;;;;;;;2.53;1.67;;;;;;;22.25;100.00;96059.44;5129160;27;20489;-48
2022/09/09 06:33:54;;;;;;;3.67;2.00;;;;;;;22.39;100.00;96060.09;5140861;27;20081;-50
2022/09/09 06:36:24;;;;;;;3.05;1.88;;;;;;;22.82;100.00;96050.97;5140695;27;20454;-52
2022/09/09 06:38:52;;;;;;;2.20;1.60;;;;;;;22.66;100.00;96055.94;5145509;27;20074;-48
2022/09/09 06:41:22;;;;;;;3.05;2.08;;;;;;;22.81;100.00;96050.13;5150967;27;20086;-49
2022/09/09 06:43:51;;;;;;;4.17;1.90;;;;;;;22.78;100.00;96057.84;5150308;27;20078;-51
2022/09/09 06:46:21;;;;;;;4.63;1.93;;;;;;;22.86;100.00;96063.69;5150519;27;20460;-47
2022/09/09 06:48:50;;;;;;;2.63;1.67;;;;;;;23.20;100.00;96064.81;5143388;27;20510;-52
2022/09/09 06:51:20;;;;;;;2.70;1.73;;;;;;;22.94;100.00;96070.63;5146170;27;20555;-52
2022/09/09 06:53:52;;;;;;;1.60;1.50;;;;;;;22.84;100.00;96073.84;5142606;27;20501;-48
2022/09/09 06:56:23;;;;;;;5.88;1.73;;;;;;;23.10;100.00;96071.84;5144678;27;20086;-49
2022/09/09 06:58:54;;;;;;;2.80;1.73;;;;;;;22.33;100.00;96079.78;5139933;27;20078;-47
2022/09/09 07:01:24;;;;;;;5.63;1.92;;;;;;;23.13;100.00;96068.69;5149088;27;20075;-49
2022/09/09 07:03:54;;;;;;;2.47;1.60;;;;;;;23.03;100.00;96081.88;5147513;27;20126;-54
2022/09/09 07:06:24;;;;;;;3.90;1.50;;;;;;;23.29;100.00;96073.34;5147684;27;20897;-51
2022/09/09 07:08:53;;;;;;;2.85;1.50;;;;;;;22.66;100.00;96084.69;5145524;27;20075;-50
2022/09/09 07:11:26;;;;;;;2.95;1.77;;;;;;;22.95;100.00;96089.25;5132935;27;20077;-49
2022/09/09 07:13:57;;;;;;;4.03;1.60;;;;;;;23.00;100.00;96104.69;5133083;27;20075;-53
2022/09/09 07:16:27;;;;;;;2.00;1.80;;;;;;;22.54;100.00;96118.78;5139040;27;20075;-49
2022/09/09 07:18:57;;;;;;;3.22;2.10;;;;;;;22.43;100.00;96140.00;5140301;27;20077;-47
2022/09/09 07:21:27;;;;;;;9.27;2.20;;;;;;;22.02;100.00;96146.06;5134344;27;20071;-52
2022/09/09 07:23:55;;;;;;;7.60;2.23;;;;;;;20.81;100.00;96166.09;5151864;27;20066;-54
2022/09/09 07:26:26;;;;;;;7.30;3.20;;;;;;;21.04;100.00;96178.94;5145221;27;20085;-52
2022/09/09 07:28:56;;;;;;;6.65;3.40;;;;;;;20.79;100.00;96176.22;5139378;27;20067;-53
2022/09/09 07:31:27;;;;;;;3.97;2.85;;;;;;;20.75;100.00;96175.84;5145741;27;20086;-60
2022/09/09 07:33:55;;;;;;;5.53;3.20;;;;;;;21.11;100.00;96166.31;5137705;27;20086;-50
2022/09/09 07:36:25;;;;;;;5.05;3.25;;;;;;;21.01;100.00;96168.66;5147672;27;20081;-53
2022/09/09 07:39:02;;;;;;;6.20;3.35;;;;;;;20.56;100.00;96180.25;5145951;27;20066;-55
2022/09/09 07:41:34;;;;;;;8.60;3.45;;;;;;;20.74;100.00;96181.41;5144587;27;20086;-52
2022/09/09 07:44:07;;;;;;;7.03;3.20;;;;;;;21.00;100.00;96173.19;5135596;27;20090;-58
2022/09/09 07:46:36;;;;;;;6.55;3.10;;;;;;;21.16;100.00;96173.69;5149623;27;20477;-54
2022/09/09 07:49:04;;;;;;;5.35;3.50;;;;;;;21.41;100.00;96169.19;5139005;27;20074;-56
2022/09/09 07:51:34;;;;;;;4.68;3.30;;;;;;;21.66;100.00;96171.84;5141811;27;20090;-56
2022/09/09 07:54:05;;;;;;;5.30;3.40;;;;;;;21.96;100.00;96168.44;5145630;27;20078;-55
2022/09/09 07:56:33;;;;;;;;;;;;;;;21.81;100.00;96177.66;5137398;27;20089;-54
2022/09/09 07:59:04;;;;;;;5.15;2.42;;;;;;;21.53;100.00;96167.41;5139023;27;19927;-51
2022/09/09 08:01:38;;;;;;;5.63;2.88;;;;;;;21.90;100.00;96170.16;5141410;27;20079;-57
2022/09/09 08:04:09;;;;;;;4.68;2.70;;;;;;;22.22;100.00;96162.78;5147335;27;20078;-51
2022/09/09 08:06:39;;;;;;;6.13;3.00;;;;;;;22.17;100.00;96172.59;5150419;27;20610;-54
2022/09/09 08:09:09;;;;;;;3.88;2.60;;;;;;;22.08;100.00;96169.34;5147268;27;20078;-51
2022/09/09 08:11:37;;;;;;;3.35;2.10;;;;;;;22.85;100.00;96164.25;5149506;27;20082;-52
2022/09/09 08:14:08;;;;;;;7.45;2.70;;;;;;;23.05;100.00;96166.66;5145673;27;20073;-56
2022/09/09 08:16:40;;;;;;;3.65;2.55;;;;;;;23.17;100.00;96172.06;5134755;27;20493;-57
2022/09/09 08:19:09;;;;;;;2.90;2.22;;;;;;;23.64;100.00;96164.88;5142119;27;20082;-57
2022/09/09 08:21:39;;;;;;;6.00;2.30;;;;;;;23.73;100.00;96164.53;5142195;27;20066;-54
2022/09/09 08:24:10;;;;;;;4.60;2.20;;;;;;;23.91;100.00;96167.09;5140826;27;20449;-54
2022/09/09 08:26:41;;;;;;;4.75;2.42;;;;;;;24.39;100.00;96165.94;5143751;27;20489;-54
2022/09/09 08:29:11;;;;;;;7.40;2.20;;;;;;;24.03;100.00;96185.94;5151685;27;20786;-53
2022/09/09 08:31:44;;;;;;;4.13;2.30;;;;;;;23.87;100.00;96192.84;5146682;27;20560;-57
2022/09/09 08:34:12;;;;;;;2.38;1.88;;;;;;;23.64;100.00;96205.25;5157869;27;20063;-57
2022/09/09 08:36:43;;;;;;;3.35;2.08;;;;;;;23.40;100.00;96204.41;5144230;27;20042;-51
2022/09/09 08:39:11;;;;;;;;;;;;;;;23.95;100.00;96200.59;5133500;27;20075;-56
2022/09/09 08:41:50;;;;;;;4.50;2.10;;;;;;;23.86;100.00;96200.13;5141160;27;19970;-57
2022/09/09 08:44:24;;;;;;;4.50;2.30;;;;;;;24.05;100.00;96208.06;5139520;27;20063;-56
2022/09/09 08:46:58;;;;;;;5.35;2.22;;;;;;;24.36;100.00;96198.75;5147248;27;20124;-54
2022/09/09 08:49:42;;;;;;;3.35;2.10;;;;;;;24.37;100.00;96205.81;5151069;27;20464;-57
2022/09/09 08:52:17;;;;;;;3.78;1.95;;;;;;;25.05;100.00;96202.31;5139635;27;20063;-54
2022/09/09 08:54:46;;;;;;;5.07;2.20;;;;;;;24.97;100.00;96201.84;5149235;27;20070;-54
2022/09/09 08:57:26;;;;;;;5.03;2.17;;;;;;;25.28;100.00;96205.94;5137831;27;20077;-59
2022/09/09 08:59:56;;;;;;;4.45;1.90;;;;;;;25.00;100.00;96191.41;5135532;27;20085;-56
2022/09/09 09:02:28;;;;;;;3.92;2.00;;;;;;;24.24;100.00;96189.88;5144380;27;20066;-56
2022/09/09 09:05:13;;;;;;;3.40;1.83;;;;;;;24.09;100.00;96201.97;5146394;27;20520;-58
2022/09/09 09:07:53;;;;;;;3.60;1.90;;;;;;;24.49;100.00;96203.91;5146785;27;20596;-55
2022/09/09 09:10:32;;;;;;;5.03;2.20;;;;;;;24.83;100.00;96198.63;5150553;27;20077;-55
2022/09/09 09:13:16;;;;;;;3.35;2.13;;;;;;;24.12;100.00;96197.97;5148368;27;20079;-55
2022/09/09 09:15:49;;;;;;;3.58;2.22;;;;;;;23.06;100.00;96207.84;5140225;27;20543;-51
2022/09/09 09:18:19;;;;;;;4.53;2.35;;;;;;;23.61;100.00;96202.19;5142119;27;20505;-55
2022/09/09 09:20:56;;;;;;;3.20;2.08;;;;;;;22.85;100.00;96195.66;5150053;27;20085;-54
2022/09/09 09:23:26;;;;;;;4.72;2.45;;;;;;;22.50;100.00;96188.28;5151270;27;20071;-53
2022/09/09 09:25:59;;;;;;;4.25;2.58;;;;;;;22.63;100.00;96179.22;5147253;27;20081;-54
2022/09/09 09:28:30;;;;;;;3.38;2.33;;;;;;;22.88;100.00;96168.31;5130774;27;20149;-54
2022/09/09 09:31:01;;;;;;;4.57;2.33;;;;;;;22.54;100.00;96188.66;5137810;27;20444;-58
2022/09/09 09:33:34;;;;;;;4.28;2.03;;;;;;;22.62;100.00;96191.84;5149481;27;20074;-56
2022/09/09 09:36:06;;;;;;;4.28;2.40;;;;;;;22.62;100.00;96186.47;5140539;27;20070;-54
2022/09/09 09:38:36;;;;;;;3.65;2.20;;;;;;;22.80;100.00;96192.84;5144284;27;20081;-52
2022/09/09 09:41:36;;;;;;;3.22;2.20;;;;;;;23.22;100.00;96186.44;5142401;27;20282;-55
2022/09/09 09:44:05;;;;;;;3.80;2.40;;;;;;;23.63;100.00;96190.13;5130016;27;20082;-49
2022/09/09 09:46:33;;;;;;;3.58;2.20;;;;;;;23.53;100.00;96189.06;5134100;27;20070;-53
2022/09/09 09:49:05;;;;;;;4.60;2.35;;;;;;;24.52;100.00;96195.34;5142221;27;20081;-52
2022/09/09 09:51:35;;;;;;;4.40;2.65;;;;;;;24.20;100.00;96194.13;5149325;27;20061;-55
2022/09/09 09:54:20;;;;;;;4.40;2.33;;;;;;;23.79;100.00;96199.41;5149221;27;20074;-54
2022/09/09 09:56:48;;;;;;;3.67;2.30;;;;;;;24.84;100.00;96193.03;5140104;27;20097;-50
2022/09/09 09:59:25;;;;;;;3.75;2.15;;;;;;;25.44;100.00;96197.06;5146311;27;20078;-53
2022/09/09 10:02:19;;;;;;;4.82;2.28;;;;;;;25.50;100.00;96197.97;5136826;27;20426;-51
2022/09/09 10:04:49;;;;;;;5.03;2.60;;;;;;;25.77;100.00;96196.22;5143343;27;20501;-57
2022/09/09 10:07:20;;;;;;;5.32;2.50;;;;;;;26.82;100.00;96200.88;5143868;27;20487;-52
2022/09/09 10:09:52;;;;;;;2.53;2.30;;;;;;;26.41;100.00;96200.34;5136089;27;20067;-52
2022/09/09 10:12:33;;;;;;;4.15;2.50;;;;;;;27.19;100.00;96209.16;5141908;27;20074;-51
2022/09/09 10:15:05;;;;;;;4.00;2.45;;;;;;;26.01;100.00;96204.13;5151134;27;20451;-54
2022/09/09 10:17:40;;;;;;;4.20;2.50;;;;;;;26.25;100.00;96202.84;5157214;27;20082;-51
2022/09/09 10:20:30;;;;;;;4.30;2.22;;;;;;;26.42;100.00;96189.28;5143836;27;20372;-54
2022/09/09 10:23:06;;;;;;;3.85;2.50;;;;;;;26.11;100.00;96190.78;5145255;27;20420;-49
2022/09/09 10:25:46;;;;;;;2.58;2.17;;;;;;;26.27;100.00;96186.41;5153546;27;20063;-52
2022/09/09 10:28:30;;;;;;;3.83;2.30;;;;;;;24.66;100.00;96195.06;5145973;27;20058;-51
2022/09/09 10:31:06;;;;;;;5.30;2.30;;;;;;;25.18;100.00;96197.69;5143158;27;20512;-53
2022/09/09 10:33:42;;;;;;;4.10;2.38;;;;;;;25.21;100.00;96191.78;5159014;27;20081;-52
2022/09/09 10:36:14;;;;;;;5.88;2.22;;;;;;;25.25;100.00;96193.75;5148817;27;20067;-50
2022/09/09 10:38:44;;;;;;;4.13;2.08;;;;;;;24.62;100.00;96206.34;5142451;27;20079;-51
2022/09/09 10:41:20;;;;;;;3.03;1.80;;;;;;;26.12;100.00;96197.84;5144956;27;20074;-55
2022/09/09 10:44:19;;;;;;;4.15;1.75;;;;;;;26.09;100.00;96198.31;5155137;27;20066;-54
2022/09/09 10:46:56;;;;;;;3.65;2.10;;;;;;;26.68;100.00;96197.75;5149214;27;20074;-50
2022/09/09 10:49:53;;;;;;;5.38;2.55;;;;;;;26.66;100.00;96186.34;5144896;27;20075;-51
2022/09/09 10:52:28;;;;;;;3.10;2.20;;;;;;;26.06;100.00;96193.41;5156032;27;20085;-51
2022/09/09 10:55:00;;;;;;;4.35;2.20;;;;;;;25.40;100.00;96195.91;5147613;27;20154;-56
2022/09/09 10:57:32;;;;;;;2.72;1.95;;;;;;;26.75;100.00;96191.06;5146950;27;20042;-48
2022/09/09 11:00:05;;;;;;;5.85;2.30;;;;;;;26.92;100.00;96198.28;5156402;27;20087;-52
2022/09/09 11:02:35;;;;;;;3.20;1.75;;;;;;;26.68;100.00;96201.25;5151416;27;20074;-54
2022/09/09 11:05:06;;;;;;;3.90;2.03;;;;;;;26.99;100.00;96204.31;5142375;27;20086;-51
2022/09/09 11:07:40;;;;;;;2.95;1.70;;;;;;;27.47;100.00;96202.63;5150303;27;20074;-52
2022/09/09 11:10:18;;;;;;;4.47;1.98;;;;;;;25.47;100.00;96206.53;5155482;27;20085;-52
2022/09/09 11:12:49;;;;;;;3.65;1.83;;;;;;;26.13;100.00;96196.75;5149654;27;20126;-53
2022/09/09 11:15:18;;;;;;;;;;;;;;;26.46;100.00;96185.03;5143582;27;20481;-53
2022/09/09 11:17:49;;;;;;;3.17;1.50;;;;;;;27.80;100.00;96187.97;5150382;27;19969;-52
2022/09/09 11:20:17;;;;;;;2.40;1.40;;;;;;;27.15;100.00;96189.03;5150105;27;20085;-50
2022/09/09 11:22:50;;;;;;;5.68;1.60;;;;;;;26.23;100.00;96188.78;5154684;27;20609;-50
2022/09/09 11:25:21;;;;;;;3.85;1.45;;;;;;;26.78;100.00;96184.34;5153702;27;20047;-51
2022/09/09 11:28:03;;;;;;;3.53;1.60;;;;;;;26.69;100.00;96177.72;5140011;27;20062;-49
2022/09/09 11:30:35;;;;;;;2.72;1.40;;;;;;;27.04;100.00;96184.59;5144692;27;20445;-50
2022/09/09 11:33:48;;;;;;;2.00;1.50;;;;;;;28.21;100.00;96169.25;5142857;27;20038;-55
2022/09/09 11:36:38;;;;;;;1.90;1.23;;;;;;;27.44;100.00;96173.34;5142140;27;20090;-55
2022/09/09 11:39:29;;;;;;;3.72;1.40;;;;;;;29.02;100.00;96167.97;5133049;27;20110;-51
2022/09/09 11:42:07;;;;;;;2.22;1.10;;;;;;;27.16;100.00;96174.47;5146099;27;20426;-53
2022/09/09 11:44:35;;;;;;;4.85;1.20;;;;;;;28.97;89.09;96162.47;5149496;27;20437;-54
2022/09/09 11:47:17;;;;;;;2.33;1.10;;;;;;;29.18;84.89;96158.75;5139944;27;20058;-52
2022/09/09 11:49:46;;;;;;;2.78;1.30;;;;;;;28.98;85.09;96162.22;5132300;27;20078;-54
2022/09/09 11:52:22;;;;;;;2.67;1.10;;;;;;;29.42;78.37;96164.47;5146926;27;20062;-53